Latest Weather Observations for Camden

IDN60801

Issued at 4:32 am EST Saturday 5 September 2015 (issued every 30 minutes, with the page automatically refreshed every 10 minutes)

About weather observations | Map of weather stations | Latest weather observations for NSW | Other Formats
Station Details ID: 068192 Name: CAMDEN AIRPORT AWS Lat: -34.04 Lon: 150.69 Height: 73.9 m
Data from the previous 72 hours. | See also: Recent months at Camden
Date/Time
EST
Temp
°C
App
Temp
°C
Dew
Point
Rel
Hum
%
Delta-T
°C
Wind Press
QNH
hPa
Press
MSL
hPa
Rain
since 9 am
mm
Dir
 
Spd
km/h
Gust
km/h
Spd
kts
Gust
kts
05/04:30am 6.9 6.2 6.8 99 0.0 CALM 0 0 0 0 1021.0 1021.0 0.0
05/04:10am 6.9 6.2 6.8 99 0.0 CALM 0 0 0 0 1020.8 1020.8 0.0
05/04:00am 6.9 6.2 6.8 99 0.0 CALM 0 0 0 0 1020.8 1020.8 0.0
05/03:48am 7.1 6.4 7.0 99 0.0 CALM 0 0 0 0 1020.8 1020.8 0.0
05/03:30am 7.6 7.0 7.5 99 0.0 CALM 0 0 0 0 1020.7 1020.7 0.0
05/03:00am 7.8 7.2 7.5 98 0.1 CALM 0 0 0 0 1020.7 1020.7 0.0
05/02:58am 7.7 7.1 7.4 98 0.1 CALM 0 0 0 0 1020.8 1020.8 0.0
05/02:30am 8.2 7.7 7.9 98 0.1 CALM 0 0 0 0 1021.1 1021.1 0.0
05/02:00am 8.8 8.4 8.4 97 0.2 CALM 0 0 0 0 1021.5 1021.5 0.0
05/01:36am 9.0 8.7 8.7 98 0.1 CALM 0 0 0 0 1021.7 1021.7 0.0
05/01:30am 9.3 9.0 8.8 97 0.2 CALM 0 0 0 0 1021.7 1021.7 0.0
05/01:23am 9.4 9.2 8.9 97 0.2 CALM 0 0 0 0 1021.7 1021.7 0.0
05/01:00am 9.7 9.5 8.9 95 0.4 CALM 0 0 0 0 1021.8 1021.8 0.0
05/12:51am 9.7 9.5 8.9 95 0.4 CALM 0 0 0 0 1021.9 1021.9 0.0
05/12:41am 10.1 10.0 9.3 95 0.4 CALM 0 0 0 0 1021.9 1021.9 0.0
05/12:30am 10.1 9.6 9.2 94 0.4 N 2 6 1 3 1022.0 1022.0 0.0
05/12:00am 11.2 11.3 10.1 93 0.6 CALM 0 0 0 0 1022.2 1022.2 0.0
 
Date/Time
EST
Temp
°C
App
Temp
°C
Dew
Point
Rel
Hum
%
Delta-T
°C
Wind Press
QNH
hPa
Press
MSL
hPa
Rain
since 9 am
mm
Dir
 
Spd
km/h
Gust
km/h
Spd
kts
Gust
kts
04/11:30pm 11.4 11.4 9.8 90 0.8 CALM 0 0 0 0 1022.4 1022.4 0.0
04/11:00pm 11.8 11.9 10.2 90 0.8 CALM 0 0 0 0 1022.5 1022.5 0.0
04/10:30pm 12.2 11.2 10.3 88 1.0 S 6 6 3 3 1022.7 1022.7 0.0
04/10:00pm 12.0 11.0 10.2 89 0.9 S 6 7 3 4 1022.7 1022.7 0.0
04/09:30pm 12.2 11.2 10.3 88 1.0 S 6 7 3 4 1022.6 1022.6 0.0
04/09:00pm 12.1 11.3 9.8 86 1.2 SSW 4 7 2 4 1022.4 1022.4 0.0
04/08:30pm 12.3 11.1 9.7 84 1.3 SSW 6 7 3 4 1022.5 1022.5 0.0
04/08:00pm 12.8 11.3 9.1 78 1.9 S 7 7 4 4 1022.3 1022.3 0.0
04/07:30pm 13.4 11.8 8.9 74 2.3 S 7 9 4 5 1022.2 1022.2 0.0
04/07:00pm 13.9 13.7 8.9 72 2.5 CALM 0 0 0 0 1022.0 1022.0 0.0
04/06:30pm 14.7 14.3 8.2 65 3.3 CALM 0 0 0 0 1021.5 1021.5 0.0
04/06:00pm 14.8 13.0 8.1 64 3.4 E 7 11 4 6 1021.2 1021.2 0.0
04/05:30pm 15.3 13.4 7.6 60 3.8 ESE 7 11 4 6 1020.9 1020.9 0.0
04/05:00pm 16.0 13.1 8.0 59 4.0 E 13 20 7 11 1020.5 1020.5 0.0
04/04:30pm 16.8 13.9 8.0 56 4.5 E 13 20 7 11 1020.3 1020.3 0.0
04/04:00pm 18.3 17.6 6.8 47 5.7 CALM 0 0 0 0 1020.2 1020.2 0.0
04/03:30pm 18.2 16.4 7.3 49 5.5 S 6 7 3 4 1020.2 1020.2 0.0
04/03:00pm 18.0 16.1 6.8 48 5.6 SE 6 11 3 6 1020.1 1020.1 0.0
04/02:30pm 18.7 16.2 6.5 45 6.1 WSW 9 13 5 7 1020.2 1020.2 0.0
04/02:00pm 18.0 15.6 6.8 48 5.6 SE 9 13 5 7 1020.4 1020.4 0.0
04/01:30pm 19.1 16.2 8.1 49 5.7 S 13 20 7 11 1020.7 1020.7 0.0
04/01:00pm 18.3 14.9 7.7 50 5.4 SSE 15 20 8 11 1021.1 1021.1 0.0
04/12:30pm 19.1 15.5 8.4 50 5.6 SSE 17 26 9 14 1021.4 1021.4 0.0
04/12:00pm 18.0 14.1 7.1 49 5.5 S 17 22 9 12 1021.7 1021.7 0.0
04/11:30am 18.4 15.2 8.4 52 5.2 S 15 20 8 11 1021.9 1021.9 0.0
04/11:00am 17.2 13.8 7.5 53 4.9 SSW 15 20 8 11 1022.2 1022.2 0.0
04/10:30am 16.6 12.7 7.3 54 4.7 SSW 17 26 9 14 1022.4 1022.4 0.0
04/10:00am 16.7 13.7 7.9 56 4.4 SSW 13 22 7 12 1022.3 1022.3 0.0
04/09:30am 16.0 12.3 8.0 59 4.0 SSW 17 24 9 13 1022.4 1022.4 0.0
04/09:00am 15.9 12.3 8.4 61 3.8 SSW 17 24 9 13 1022.1 1022.1 0.0
04/08:30am 14.9 10.6 7.9 63 3.5 SSW 20 28 11 15 1021.9 1021.9 0.0
04/08:00am 15.2 11.6 8.4 64 3.4 SSW 17 28 9 15 1021.5 1021.5 0.0
04/07:30am 14.6 11.4 8.5 67 3.1 SW 15 20 8 11 1021.2 1021.2 0.0
04/07:00am 13.7 10.1 8.5 71 2.6 SW 17 22 9 12 1020.5 1020.5 0.0
04/06:30am 13.5 10.4 8.8 73 2.4 SW 15 20 8 11 1020.3 1020.3 0.0
04/06:00am 13.2 10.4 8.7 74 2.3 SW 13 19 7 10 1019.8 1019.7 0.0
04/05:30am 13.0 10.6 8.5 74 2.3 SW 11 17 6 9 1019.4 1019.3 0.0
04/05:00am 13.4 10.3 8.7 73 2.4 SW 15 20 8 11 1018.9 1018.8 0.0
04/04:30am 13.4 10.6 8.5 72 2.5 SSW 13 20 7 11 1018.3 1018.2 0.0
04/04:00am 14.0 10.5 8.6 70 2.7 SW 17 22 9 12 1018.2 1018.1 0.0
04/03:30am 13.9 9.8 8.5 70 2.7 SW 20 30 11 16 1017.7 1017.6 0.0
04/03:00am 14.0 9.8 8.2 68 2.9 SW 20 30 11 16 1017.7 1017.6 0.0
04/02:30am 14.1 9.5 8.3 68 2.9 SW 22 30 12 16 1017.3 1017.2 0.0
04/02:00am 14.0 9.8 8.2 68 2.9 SW 20 28 11 15 1017.2 1017.1 0.0
04/01:30am 13.7 9.6 7.9 68 2.9 SW 19 28 10 15 1017.0 1016.9 0.0
04/01:00am 14.0 9.9 8.0 67 3.0 SW 19 26 10 14 1016.7 1016.6 0.0
04/12:30am 14.2 9.1 7.7 65 3.2 SW 24 35 13 19 1016.1 1016.0 0.0
04/12:00am 13.8 9.5 7.8 67 3.0 SW 20 26 11 14 1015.8 1015.7 0.0
 
Date/Time
EST
Temp
°C
App
Temp
°C
Dew
Point
Rel
Hum
%
Delta-T
°C
Wind Press
QNH
hPa
Press
MSL
hPa
Rain
since 9 am
mm
Dir
 
Spd
km/h
Gust
km/h
Spd
kts
Gust
kts
03/11:30pm 13.8 9.6 7.6 66 3.1 SW 19 32 10 17 1015.1 1015.1 0.0
03/11:00pm 14.0 9.2 7.5 65 3.2 SW 22 32 12 17 1014.7 1014.7 0.0
03/10:30pm 14.5 10.1 7.3 62 3.5 SW 20 30 11 16 1014.9 1014.9 0.0
03/10:00pm 14.4 8.8 7.2 62 3.5 SW 26 37 14 20 1014.6 1014.6 0.0
03/09:30pm 14.3 9.6 7.6 64 3.3 SW 22 30 12 16 1014.4 1014.4 0.0
03/09:00pm 14.6 9.7 6.9 60 3.8 SW 22 30 12 16 1014.0 1014.0 0.0
03/08:30pm 15.0 9.3 6.8 58 4.0 SW 26 35 14 19 1013.5 1013.5 0.0
03/08:00pm 15.1 10.2 6.7 57 4.1 SW 22 32 12 17 1012.7 1012.7 0.0
03/07:30pm 14.8 10.2 6.4 57 4.1 WSW 20 28 11 15 1012.0 1012.0 0.0
03/07:00pm 14.9 10.8 6.2 56 4.2 WSW 17 20 9 11 1011.5 1011.5 0.0
03/06:30pm 14.8 11.4 5.9 55 4.3 WSW 13 24 7 13 1011.0 1011.0 0.0
03/06:00pm 15.1 10.9 5.6 53 4.5 SW 17 24 9 13 1010.4 1010.4 0.0
03/05:30pm 15.9 10.7 5.5 50 5.0 SW 22 32 12 17 1009.6 1009.6 0.0
03/05:00pm 16.5 10.0 4.9 46 5.5 SW 28 41 15 22 1008.8 1008.8 0.0
03/04:30pm 17.6 11.9 4.9 43 6.1 WSW 24 33 13 18 1007.7 1007.6 0.0
03/04:00pm 17.3 12.4 4.3 42 6.2 SW 19 28 10 15 1007.5 1007.4 0.0
03/03:30pm 17.4 13.0 4.7 43 6.1 WSW 17 28 9 15 1007.1 1007.0 0.0
03/03:00pm 18.0 11.7 3.5 38 6.8 SW 26 35 14 19 1006.7 1006.6 0.0
03/02:30pm 18.3 11.3 2.2 34 7.4 WSW 28 41 15 22 1006.2 1006.1 0.0
03/02:00pm 19.1 13.2 3.7 36 7.3 WSW 24 35 13 19 1005.7 1005.6 0.0
03/01:30pm 19.2 12.5 3.4 35 7.4 WSW 28 39 15 21 1005.6 1005.5 0.0
03/01:00pm 18.9 12.2 3.9 37 7.2 WSW 28 43 15 23 1005.6 1005.5 0.0
03/12:30pm 18.7 11.9 3.3 36 7.2 WSW 28 43 15 23 1005.8 1005.7 0.0
03/12:00pm 18.0 12.0 5.2 43 6.2 W 26 39 14 21 1006.1 1006.0 0.0
03/11:30am 16.9 12.0 5.2 46 5.6 WSW 20 30 11 16 1006.4 1006.3 0.0
03/11:00am 17.5 12.9 6.7 49 5.4 W 20 30 11 16 1006.5 1006.4 0.0
03/10:30am 17.3 12.4 6.8 50 5.2 WSW 22 32 12 17 1006.6 1006.5 0.0
03/10:00am 16.7 14.2 9.6 63 3.7 WNW 13 20 7 11 1006.3 1006.2 0.0
03/09:30am 14.8 14.9 10.0 73 2.5 CALM 0 6 0 3 1006.2 1006.1 0.0
03/09:00am 13.7 13.4 10.1 79 1.9 NNW 2 6 1 3 1006.2 1006.1 5.2
03/08:30am 12.0 10.9 9.9 87 1.1 NNE 6 7 3 4 1006.3 1006.2 5.2
03/08:00am 10.5 9.5 10.3 99 0.1 SSE 6 13 3 7 1006.1 1006.0 5.2
03/07:36am 8.9 8.6 8.8 99 0.0 CALM 0 0 0 0 1005.9 1005.8 5.2
03/07:30am 8.7 8.4 8.6 99 0.0 CALM 0 2 0 1 1005.8 1005.7 5.2
03/07:20am 8.2 6.6 8.1 99 0.0 NE 6 9 3 5 1005.7 1005.6 5.2
03/07:00am 6.9 5.4 6.8 99 0.0 S 4 6 2 3 1005.4 1005.3 5.2
03/06:45am 6.2 4.9 6.1 99 0.0 W 2 7 1 4 1005.3 1005.2 5.2
03/06:30am 6.4 5.2 6.3 99 0.0 NNW 2 6 1 3 1005.1 1005.0 5.2
03/06:24am 6.4 5.2 6.3 99 0.0 NNW 2 7 1 4 1005.1 1005.0 5.2
03/06:00am 6.9 6.2 6.8 99 0.0 CALM 0 0 0 0 1005.0 1004.9 5.2
03/05:30am 7.9 7.4 7.8 99 0.0 CALM 0 0 0 0 1005.0 1004.9 5.2
03/05:00am 8.3 6.6 8.2 99 0.0 NNW 7 7 4 4 1005.1 1005.0 5.2
03/04:42am 8.4 6.9 8.3 99 0.0 NNW 6 7 3 4 1005.3 1005.2 5.2
03/04:41am 8.4 6.9 8.3 99 0.0 NNW 6 7 3 4 1005.3 1005.2 5.2
03/04:35am 8.3 7.5 8.2 99 0.0 NW 2 7 1 4 1005.2 1005.1 5.2
03/04:34am 8.4 7.6 8.3 99 0.0 NW 2 7 1 4 1005.2 1005.1 5.2
03/04:31am 8.5 8.1 8.4 99 0.0 CALM 0 7 0 4 1005.2 1005.1 5.2
03/04:30am 8.6 8.3 8.5 99 0.0 CALM 0 0 0 0 1005.2 1005.1 5.2
03/04:28am 8.7 8.4 8.6 99 0.0 CALM 0 0 0 0 1005.2 1005.1 5.2
03/04:26am 8.9 8.6 8.8 99 0.0 CALM 0 0 0 0 1005.3 1005.2 5.2
03/04:23am 9.0 8.8 8.9 99 0.0 CALM 0 0 0 0 1005.3 1005.2 5.2
03/04:21am 8.8 8.5 8.7 99 0.0 CALM 0 0 0 0 1005.3 1005.2 5.2
03/04:02am 8.7 8.4 8.6 99 0.0 CALM 0 0 0 0 1005.5 1005.4 5.2
03/04:00am 8.7 8.4 8.6 99 0.0 CALM 0 0 0 0 1005.5 1005.4 5.2
03/03:38am 9.1 7.7 9.0 99 0.0 W 6 9 3 5 1005.6 1005.5 5.2
03/03:30am 9.1 7.2 9.0 99 0.0 WSW 9 11 5 6 1005.8 1005.7 5.2
03/03:00am 9.5 8.3 9.4 99 0.0 E 6 9 3 5 1005.8 1005.7 5.2
03/02:30am 9.7 8.3 9.6 99 0.1 S 7 9 4 5 1006.5 1006.4 5.2
03/02:00am 9.7 7.6 9.6 99 0.1 SSE 11 13 6 7 1007.5 1007.4 5.2
03/01:50am 9.8 7.7 9.7 99 0.1 SE 11 15 6 8 1007.7 1007.6 5.2
03/01:30am 9.9 9.5 9.8 99 0.1 SE 2 9 1 5 1008.3 1008.2 4.4
03/01:24am 9.9 8.6 9.8 99 0.1 SE 7 9 4 5 1008.4 1008.3 4.0
03/01:00am 10.0 8.3 9.9 99 0.1 SSE 9 11 5 6 1008.5 1008.5 3.2
03/12:30am 9.9 8.2 9.8 99 0.1 W 9 11 5 6 1009.5 1009.5 2.0
03/12:00am 9.5 6.5 9.2 98 0.1 SE 15 20 8 11 1008.0 1007.9 1.6
 
Date/Time
EST
Temp
°C
App
Temp
°C
Dew
Point
Rel
Hum
%
Delta-T
°C
Wind Press
QNH
hPa
Press
MSL
hPa
Rain
since 9 am
mm
Dir
 
Spd
km/h
Gust
km/h
Spd
kts
Gust
kts
02/11:30pm 9.5 7.9 8.6 94 0.4 NE 7 9 4 5 1009.6 1009.6 1.0
02/11:00pm 9.4 8.9 7.8 90 0.8 CALM 0 0 0 0 1009.4 1009.4 0.0
02/10:30pm 9.4 8.9 7.7 89 0.8 CALM 0 0 0 0 1009.1 1009.1 0.0
02/10:00pm 8.8 8.2 7.3 90 0.7 CALM 0 0 0 0 1009.4 1009.4 0.0
02/09:30pm 9.6 8.8 6.5 81 1.4 CALM 0 0 0 0 1009.4 1009.4 0.0
02/09:00pm 10.3 9.7 7.2 81 1.5 CALM 0 0 0 0 1010.0 1010.0 0.0
02/08:41pm 10.2 9.6 7.3 82 1.4 CALM 0 0 0 0 1010.4 1010.4 0.0
02/08:30pm 10.5 9.7 6.5 76 1.9 CALM 0 0 0 0 1010.5 1010.5 0.0
02/08:00pm 10.3 8.2 5.9 74 2.0 SW 6 7 3 4 1010.8 1010.8 0.0
02/07:30pm 10.7 8.0 5.5 70 2.4 S 9 11 5 6 1010.6 1010.6 0.0
02/07:00pm 11.2 10.2 5.5 68 2.6 CALM 0 0 0 0 1011.0 1011.0 0.0
02/06:30pm 12.0 9.5 4.5 60 3.4 SSE 7 9 4 5 1011.1 1011.1 0.0
02/06:00pm 13.5 12.4 5.2 57 3.9 CALM 0 0 0 0 1010.9 1010.9 0.0
02/05:30pm 16.3 15.2 5.0 47 5.4 CALM 0 0 0 0 1011.1 1011.1 0.0
02/05:00pm 18.0 16.3 3.9 39 6.7 NE 2 7 1 4 1011.1 1011.1 0.0
02/04:30pm 18.2 15.0 2.9 36 7.1 N 9 13 5 7 1011.4 1011.4 0.0
02/04:00pm 18.4 14.5 3.5 37 7.0 N 13 17 7 9 1011.5 1011.5 0.0
02/03:30pm 18.5 14.3 1.5 32 7.7 N 13 17 7 9 1011.6 1011.6 0.0
02/03:00pm 18.4 13.7 1.0 31 7.8 N 15 22 8 12 1011.9 1011.9 0.0
02/02:30pm 18.0 14.2 1.9 34 7.3 NNE 11 17 6 9 1012.0 1012.0 0.0
02/02:00pm 18.3 13.6 3.0 36 7.1 NNE 17 20 9 11 1012.8 1012.8 0.0
02/01:30pm 17.0 13.4 3.0 39 6.4 NNE 11 19 6 10 1013.3 1013.3 0.0
02/01:00pm 17.3 13.6 4.3 42 6.1 NE 13 19 7 10 1013.7 1013.7 0.0
02/12:30pm 16.6 14.1 3.6 42 6.0 NE 6 11 3 6 1014.4 1014.4 0.0
02/12:00pm 16.1 13.6 3.5 43 5.8 E 6 11 3 6 1015.0 1015.0 0.0
02/11:30am 14.6 12.0 4.0 49 4.9 NNW 7 11 4 6 1015.9 1015.8 0.0
02/11:00am 13.7 11.4 4.6 54 4.2 NW 6 11 3 6 1016.8 1016.7 0.0
02/10:30am 13.1 10.9 5.5 60 3.6 N 6 9 3 5 1017.2 1017.1 0.0
02/10:00am 11.9 9.1 5.3 64 3.0 N 9 11 5 6 1017.7 1017.6 0.0
02/09:30am 10.6 8.3 4.7 67 2.7 NNE 6 7 3 4 1018.0 1017.9 0.0
02/09:00am 9.7 8.7 5.5 75 1.9 CALM 0 0 0 0 1018.1 1018.0 0.0
02/08:30am 7.4 5.9 5.2 86 1.0 N 2 7 1 4 1018.2 1018.1 0.0
02/08:00am 5.1 4.0 5.0 99 0.0 CALM 0 0 0 0 1018.2 1018.1 0.0
02/07:30am 2.9 1.4 2.8 99 0.0 CALM 0 0 0 0 1018.0 1017.9 0.0
02/07:00am 1.4 -0.4 1.3 99 0.0 CALM 0 6 0 3 1017.8 1017.7 0.0
02/06:30am 0.5 -1.4 0.4 99 0.0 CALM 0 7 0 4 1017.8 1017.7 0.0
02/06:22am 0.4 -1.5 0.3 99 0.0 CALM 0 0 0 0 1017.8 1017.7 0.0
02/06:12am 1.0 -0.8 0.9 99 0.0 CALM 0 4 0 2 1017.6 1017.5 0.0
02/06:00am 1.3 -1.6 1.2 99 0.0 NNE 6 7 3 4 1017.6 1017.5 0.0
02/05:36am 0.8 -1.5 0.7 99 0.0 S 2 6 1 3 1017.4 1017.3 0.0
02/05:33am 0.8 -1.5 0.7 99 0.0 S 2 6 1 3 1017.4 1017.3 0.0
02/05:30am 0.9 -1.0 0.8 99 0.0 CALM 0 0 0 0 1017.4 1017.3 0.0
02/05:03am 1.4 -0.8 1.3 99 0.0 S 2 7 1 4 1017.0 1016.9 0.0
02/05:00am 1.7 -0.4 1.6 99 0.0 S 2 7 1 4 1017.0 1016.9 0.0
02/04:46am 2.0 0.3 1.9 99 0.0 CALM 0 0 0 0 1016.8 1016.7 0.0
02/04:39am 1.7 -0.4 1.6 99 0.0 W 2 6 1 3 1016.8 1016.7 0.0

Other Formats:

Comma delimited format used in spreadsheet applications
http://www.bom.gov.au/fwo/IDN60801/IDN60801.94755.axf

JavaScript Object Notation format (JSON) in row-major order
http://www.bom.gov.au/fwo/IDN60801/IDN60801.94755.json